Terminal Aerodrome Forecast
Issued by NWS

Home | Current Version | Previous Version | Text Only | Print | Product List | Glossary On
Versions: 1 2 3 4 5 6 7 8 9 10 11 12 13
000
FTUS44 KLUB 161700
TAFCDS
TAF
KCDS 161720Z 1618/1718 19018G24KT P6SM SCT250
     FM170000 14014KT P6SM SCT250
     FM170900 07008KT P6SM SCT020 BKN250
     FM171200 03011KT P6SM OVC015=

USA.gov is the U.S. government's official web portal to all federal, state and local government web resources and services.